CST,Max TemperatureF,Mean TemperatureF,Min TemperatureF,Max Dew PointF,MeanDew PointF,Min DewpointF,Max Humidity, Mean Humidity, Min Humidity, Max Sea Level PressureIn, Mean Sea Level PressureIn, Min Sea Level PressureIn, Max VisibilityMiles, Mean VisibilityMiles, Min VisibilityMiles, Max Wind SpeedMPH, Mean Wind SpeedMPH, Max Gust SpeedMPH,PrecipitationIn, CloudCover, Events, WindDirDegrees
2013-11-1,48,37,26,36,27,21,87,77,58,29.88,29.64,29.43,10,8,4,18,7,29,0.00,2,,302
2013-11-2,48,34,19,36,26,16,86,76,54,30.00,29.96,29.88,10,9,0,10,3,,0.00,2,Fog,210
2013-11-3,50,40,30,36,33,25,87,69,54,29.97,29.84,29.70,10,10,10,26,12,33,0.00,4,,138
2013-11-4,46,37,28,36,29,19,76,64,56,29.93,29.74,29.65,10,10,10,21,15,30,0.00,6,,219
2013-11-5,32,28,21,21,19,16,86,70,60,30.13,30.07,29.94,10,10,10,17,11,24,0.00,2,,246
2013-11-6,35,27,19,21,18,14,86,71,52,30.13,30.08,30.05,10,10,7,10,6,,0.00,3,,281
2013-11-7,35,26,17,23,17,10,86,73,52,30.17,30.13,30.07,10,10,7,9,6,,0.00,2,,247
2013-11-8,39,28,17,30,24,12,87,80,65,30.06,29.83,29.61,10,6,1,13,7,20,0.07,4,Snow,128
2013-11-9,33,32,32,28,28,28,87,81,81,30.19,29.85,29.62,10,5,1,17,6,18,0.00,8,,295
2013-11-10,33,24,14,28,19,7,87,74,46,30.32,30.18,30.08,10,10,1,22,11,26,0.00,5,,269
2013-11-11,17,12,8,9,6,1,79,73,62,30.68,30.55,30.33,10,10,7,16,11,20,0.00,6,Snow,298
2013-11-12,33,20,6,21,12,1,79,69,60,30.66,30.43,30.09,10,10,10,20,11,26,0.00,0,,207
2013-11-13,46,37,28,36,28,19,81,72,61,30.07,29.79,29.70,10,10,10,21,13,26,0.00,0,,230
2013-11-14,37,32,28,34,30,23,87,83,75,29.80,29.74,29.68,10,8,2,9,5,,0.02,7,Rain-Snow,244
2013-11-15,46,36,26,39,31,21,87,80,70,29.72,29.58,29.36,10,9,2,17,8,25,0.01,3,Rain,190
2013-11-16,48,39,30,39,34,27,87,80,71,29.36,29.33,29.30,10,9,4,18,9,22,0.02,3,Rain,153
2013-11-17,37,30,21,34,25,18,87,82,80,29.83,29.52,29.33,10,5,1,16,10,17,0.12,7,Rain-Snow,332
2013-11-18,23,21,19,18,16,14,86,84,80,30.18,30.08,29.84,10,10,4,10,7,,0.16,8,Snow,285
2013-11-19,37,29,21,30,23,18,86,78,69,30.17,29.83,29.55,10,10,10,28,11,32,0.03,1,,143
2013-11-20,33,26,19,28,22,16,87,82,74,30.14,29.88,29.59,10,9,1,16,8,22,0.01,6,Snow,335
2013-11-21,19,8,-4,14,5,-9,85,78,73,30.56,30.42,30.15,10,8,2,17,12,22,0.00,4,Snow,293
2013-11-22,12,6,1,9,2,-2,85,76,67,30.73,30.50,30.34,10,8,2,17,13,22,0.00,5,Snow,274
2013-11-23,5,-2,-9,0,-8,-15,85,76,66,30.84,30.74,30.50,10,10,5,12,7,,0.00,1,Snow,251
2013-11-24,33,20,6,28,14,0,81,73,68,30.50,29.95,29.63,10,10,10,24,15,30,0.01,4,,200
2013-11-25,35,25,15,28,21,9,87,75,68,30.07,29.88,29.65,10,8,1,22,14,33,0.03,7,Snow,298
2013-11-26,17,8,0,9,5,-6,85,76,68,30.41,30.29,30.07,10,9,4,22,12,25,0.00,4,Snow,315
2013-11-27,15,6,-2,10,6,-8,85,80,72,30.38,30.16,30.02,10,6,0,17,4,,0.01,7,Snow,142
2013-11-28,15,8,0,10,5,-6,86,80,72,30.45,30.32,30.08,10,6,2,9,4,,0.00,7,Snow,299
2013-11-29,32,14,-5,19,10,-11,85,77,55,30.45,30.21,29.97,10,10,10,15,5,20,0.00,4,,142
2013-11-30,24,20,17,18,17,12,86,80,74,30.19,30.09,29.96,10,9,2,10,6,,0.00,7,,310